sensor_id;sensor_type;location;lat;lon;timestamp;P1;durP1;ratioP1;P2;durP2;ratioP2
37431;SDS011;23292;51.300;6.252;2022-10-16T00:00:57;9.00;;;3.42;;
37431;SDS011;23292;51.300;6.252;2022-10-16T00:03:24;8.38;;;3.55;;
37431;SDS011;23292;51.300;6.252;2022-10-16T00:05:58;12.02;;;3.65;;
37431;SDS011;23292;51.300;6.252;2022-10-16T00:08:26;6.35;;;3.00;;
37431;SDS011;23292;51.300;6.252;2022-10-16T00:10:58;9.98;;;4.00;;
37431;SDS011;23292;51.300;6.252;2022-10-16T00:13:25;10.55;;;3.72;;
37431;SDS011;23292;51.300;6.252;2022-10-16T00:15:54;7.00;;;3.55;;
37431;SDS011;23292;51.300;6.252;2022-10-16T00:18:22;7.32;;;3.60;;
37431;SDS011;23292;51.300;6.252;2022-10-16T00:20:50;6.22;;;3.40;;
37431;SDS011;23292;51.300;6.252;2022-10-16T00:23:17;8.57;;;4.07;;
37431;SDS011;23292;51.300;6.252;2022-10-16T00:25:44;7.18;;;3.88;;
37431;SDS011;23292;51.300;6.252;2022-10-16T00:28:20;6.07;;;2.83;;
37431;SDS011;23292;51.300;6.252;2022-10-16T00:30:47;10.52;;;3.60;;
37431;SDS011;23292;51.300;6.252;2022-10-16T00:33:14;11.88;;;3.50;;
37431;SDS011;23292;51.300;6.252;2022-10-16T00:35:40;9.93;;;3.28;;
37431;SDS011;23292;51.300;6.252;2022-10-16T00:38:07;5.60;;;2.95;;
37431;SDS011;23292;51.300;6.252;2022-10-16T00:40:34;6.85;;;3.20;;
37431;SDS011;23292;51.300;6.252;2022-10-16T00:43:02;14.52;;;4.45;;
37431;SDS011;23292;51.300;6.252;2022-10-16T00:45:51;7.65;;;2.78;;
37431;SDS011;23292;51.300;6.252;2022-10-16T00:48:18;9.57;;;2.90;;
37431;SDS011;23292;51.300;6.252;2022-10-16T00:50:44;9.77;;;3.08;;
37431;SDS011;23292;51.300;6.252;2022-10-16T00:53:11;6.57;;;2.60;;
37431;SDS011;23292;51.300;6.252;2022-10-16T00:55:38;7.03;;;2.63;;
37431;SDS011;23292;51.300;6.252;2022-10-16T00:58:07;6.90;;;3.47;;
37431;SDS011;23292;51.300;6.252;2022-10-16T01:00:35;6.40;;;2.75;;
37431;SDS011;23292;51.300;6.252;2022-10-16T01:03:02;4.40;;;2.40;;
37431;SDS011;23292;51.300;6.252;2022-10-16T01:05:54;4.65;;;2.42;;
37431;SDS011;23292;51.300;6.252;2022-10-16T01:12:12;4.63;;;2.38;;
37431;SDS011;23292;51.300;6.252;2022-10-16T01:14:48;5.23;;;2.10;;
37431;SDS011;23292;51.300;6.252;2022-10-16T01:17:59;6.22;;;2.10;;
37431;SDS011;23292;51.300;6.252;2022-10-16T01:20:29;7.25;;;2.47;;
37431;SDS011;23292;51.300;6.252;2022-10-16T01:26:06;5.28;;;2.17;;
37431;SDS011;23292;51.300;6.252;2022-10-16T01:28:47;5.72;;;2.20;;
37431;SDS011;23292;51.300;6.252;2022-10-16T01:31:17;7.95;;;2.40;;
37431;SDS011;23292;51.300;6.252;2022-10-16T01:33:47;6.10;;;2.30;;
37431;SDS011;23292;51.300;6.252;2022-10-16T01:36:24;6.55;;;2.58;;
37431;SDS011;23292;51.300;6.252;2022-10-16T01:38:55;5.00;;;2.28;;
37431;SDS011;23292;51.300;6.252;2022-10-16T01:41:39;5.57;;;2.10;;
37431;SDS011;23292;51.300;6.252;2022-10-16T01:44:11;4.70;;;2.10;;
37431;SDS011;23292;51.300;6.252;2022-10-16T01:46:43;4.80;;;2.38;;
37431;SDS011;23292;51.300;6.252;2022-10-16T01:49:14;7.90;;;2.25;;
37431;SDS011;23292;51.300;6.252;2022-10-16T01:51:42;8.02;;;2.55;;
37431;SDS011;23292;51.300;6.252;2022-10-16T01:54:12;4.95;;;2.42;;
37431;SDS011;23292;51.300;6.252;2022-10-16T01:56:42;4.82;;;2.38;;
37431;SDS011;23292;51.300;6.252;2022-10-16T01:59:11;6.40;;;2.97;;
37431;SDS011;23292;51.300;6.252;2022-10-16T02:01:47;6.20;;;2.15;;
37431;SDS011;23292;51.300;6.252;2022-10-16T02:04:21;6.05;;;2.22;;
37431;SDS011;23292;51.300;6.252;2022-10-16T02:06:55;5.00;;;2.25;;
37431;SDS011;23292;51.300;6.252;2022-10-16T02:09:23;7.90;;;2.10;;
37431;SDS011;23292;51.300;6.252;2022-10-16T02:11:50;6.22;;;2.22;;
37431;SDS011;23292;51.300;6.252;2022-10-16T02:14:21;3.00;;;1.60;;
37431;SDS011;23292;51.300;6.252;2022-10-16T02:16:50;7.10;;;1.95;;
37431;SDS011;23292;51.300;6.252;2022-10-16T02:19:17;4.30;;;1.85;;
37431;SDS011;23292;51.300;6.252;2022-10-16T02:21:57;4.22;;;1.60;;
37431;SDS011;23292;51.300;6.252;2022-10-16T02:24:49;4.00;;;2.13;;
37431;SDS011;23292;51.300;6.252;2022-10-16T02:27:25;4.78;;;2.20;;
37431;SDS011;23292;51.300;6.252;2022-10-16T02:30:21;3.75;;;1.88;;
37431;SDS011;23292;51.300;6.252;2022-10-16T02:32:53;3.90;;;1.92;;
37431;SDS011;23292;51.300;6.252;2022-10-16T02:35:22;6.82;;;2.00;;
37431;SDS011;23292;51.300;6.252;2022-10-16T02:37:50;4.68;;;2.08;;
37431;SDS011;23292;51.300;6.252;2022-10-16T02:40:18;6.43;;;1.98;;
37431;SDS011;23292;51.300;6.252;2022-10-16T02:42:51;5.22;;;1.90;;
37431;SDS011;23292;51.300;6.252;2022-10-16T02:45:19;5.10;;;1.92;;
37431;SDS011;23292;51.300;6.252;2022-10-16T02:47:47;5.75;;;2.03;;
37431;SDS011;23292;51.300;6.252;2022-10-16T02:50:14;9.57;;;2.30;;
37431;SDS011;23292;51.300;6.252;2022-10-16T02:52:41;4.40;;;1.92;;
37431;SDS011;23292;51.300;6.252;2022-10-16T02:55:08;6.43;;;2.08;;
37431;SDS011;23292;51.300;6.252;2022-10-16T02:57:35;3.63;;;1.73;;
37431;SDS011;23292;51.300;6.252;2022-10-16T03:00:04;6.00;;;2.20;;
37431;SDS011;23292;51.300;6.252;2022-10-16T03:02:31;7.30;;;2.17;;
37431;SDS011;23292;51.300;6.252;2022-10-16T03:04:57;7.82;;;1.73;;
37431;SDS011;23292;51.300;6.252;2022-10-16T03:07:24;4.78;;;1.80;;
37431;SDS011;23292;51.300;6.252;2022-10-16T03:09:52;5.25;;;1.50;;
37431;SDS011;23292;51.300;6.252;2022-10-16T03:12:18;3.67;;;1.48;;
37431;SDS011;23292;51.300;6.252;2022-10-16T03:14:45;6.38;;;1.63;;
37431;SDS011;23292;51.300;6.252;2022-10-16T03:17:12;4.60;;;1.95;;
37431;SDS011;23292;51.300;6.252;2022-10-16T03:19:39;4.40;;;1.40;;
37431;SDS011;23292;51.300;6.252;2022-10-16T03:22:06;3.40;;;1.80;;
37431;SDS011;23292;51.300;6.252;2022-10-16T03:24:33;3.92;;;1.65;;
37431;SDS011;23292;51.300;6.252;2022-10-16T03:27:00;3.85;;;1.83;;
37431;SDS011;23292;51.300;6.252;2022-10-16T03:29:27;4.63;;;2.05;;
37431;SDS011;23292;51.300;6.252;2022-10-16T03:31:56;3.15;;;1.42;;
37431;SDS011;23292;51.300;6.252;2022-10-16T03:34:22;3.33;;;1.67;;
37431;SDS011;23292;51.300;6.252;2022-10-16T03:36:49;5.10;;;2.10;;
37431;SDS011;23292;51.300;6.252;2022-10-16T03:39:16;3.47;;;1.73;;
37431;SDS011;23292;51.300;6.252;2022-10-16T03:41:43;5.60;;;1.50;;
37431;SDS011;23292;51.300;6.252;2022-10-16T03:44:10;5.15;;;1.80;;
37431;SDS011;23292;51.300;6.252;2022-10-16T03:46:36;5.95;;;2.22;;
37431;SDS011;23292;51.300;6.252;2022-10-16T03:49:03;5.60;;;1.80;;
37431;SDS011;23292;51.300;6.252;2022-10-16T03:51:34;5.25;;;1.58;;
37431;SDS011;23292;51.300;6.252;2022-10-16T03:54:01;4.78;;;1.70;;
37431;SDS011;23292;51.300;6.252;2022-10-16T03:56:28;5.18;;;1.67;;
37431;SDS011;23292;51.300;6.252;2022-10-16T03:58:55;5.38;;;1.60;;
37431;SDS011;23292;51.300;6.252;2022-10-16T04:01:22;3.10;;;1.50;;
37431;SDS011;23292;51.300;6.252;2022-10-16T04:03:49;3.60;;;1.80;;
37431;SDS011;23292;51.300;6.252;2022-10-16T04:06:15;4.07;;;1.52;;
37431;SDS011;23292;51.300;6.252;2022-10-16T04:08:42;5.32;;;1.90;;
37431;SDS011;23292;51.300;6.252;2022-10-16T04:11:09;5.70;;;1.80;;
37431;SDS011;23292;51.300;6.252;2022-10-16T04:13:36;5.10;;;1.80;;
37431;SDS011;23292;51.300;6.252;2022-10-16T04:16:03;5.97;;;1.60;;
37431;SDS011;23292;51.300;6.252;2022-10-16T04:18:30;4.15;;;1.60;;
37431;SDS011;23292;51.300;6.252;2022-10-16T04:21:01;3.53;;;1.75;;
37431;SDS011;23292;51.300;6.252;2022-10-16T04:23:29;4.47;;;1.70;;
37431;SDS011;23292;51.300;6.252;2022-10-16T04:25:56;5.72;;;2.10;;
37431;SDS011;23292;51.300;6.252;2022-10-16T04:28:23;3.47;;;1.73;;
37431;SDS011;23292;51.300;6.252;2022-10-16T04:30:50;6.47;;;1.58;;
37431;SDS011;23292;51.300;6.252;2022-10-16T04:33:17;5.40;;;1.50;;
37431;SDS011;23292;51.300;6.252;2022-10-16T04:35:43;4.32;;;1.77;;
37431;SDS011;23292;51.300;6.252;2022-10-16T04:38:10;3.45;;;1.80;;
37431;SDS011;23292;51.300;6.252;2022-10-16T04:40:37;5.50;;;2.22;;
37431;SDS011;23292;51.300;6.252;2022-10-16T04:43:04;5.18;;;2.10;;
37431;SDS011;23292;51.300;6.252;2022-10-16T04:45:32;5.25;;;1.80;;
37431;SDS011;23292;51.300;6.252;2022-10-16T04:47:59;5.45;;;2.30;;
37431;SDS011;23292;51.300;6.252;2022-10-16T04:50:26;5.53;;;1.90;;
37431;SDS011;23292;51.300;6.252;2022-10-16T04:53:05;4.80;;;2.17;;
37431;SDS011;23292;51.300;6.252;2022-10-16T04:55:33;3.65;;;1.73;;
37431;SDS011;23292;51.300;6.252;2022-10-16T04:58:00;6.55;;;2.03;;
37431;SDS011;23292;51.300;6.252;2022-10-16T05:00:27;8.77;;;2.17;;
37431;SDS011;23292;51.300;6.252;2022-10-16T05:02:54;3.70;;;1.98;;
37431;SDS011;23292;51.300;6.252;2022-10-16T05:05:20;6.70;;;2.10;;
37431;SDS011;23292;51.300;6.252;2022-10-16T05:07:47;4.82;;;2.08;;
37431;SDS011;23292;51.300;6.252;2022-10-16T05:10:15;6.15;;;2.05;;
37431;SDS011;23292;51.300;6.252;2022-10-16T05:12:42;3.80;;;1.90;;
37431;SDS011;23292;51.300;6.252;2022-10-16T05:15:09;5.32;;;1.77;;
37431;SDS011;23292;51.300;6.252;2022-10-16T05:17:36;6.65;;;2.75;;
37431;SDS011;23292;51.300;6.252;2022-10-16T05:20:10;6.53;;;2.40;;
37431;SDS011;23292;51.300;6.252;2022-10-16T05:22:37;4.72;;;1.92;;
37431;SDS011;23292;51.300;6.252;2022-10-16T05:25:04;8.60;;;2.28;;
37431;SDS011;23292;51.300;6.252;2022-10-16T05:27:31;5.60;;;2.35;;
37431;SDS011;23292;51.300;6.252;2022-10-16T05:29:58;3.30;;;1.90;;
37431;SDS011;23292;51.300;6.252;2022-10-16T05:32:25;6.13;;;2.00;;
37431;SDS011;23292;51.300;6.252;2022-10-16T05:34:52;7.90;;;2.55;;
37431;SDS011;23292;51.300;6.252;2022-10-16T05:37:18;7.43;;;2.60;;
37431;SDS011;23292;51.300;6.252;2022-10-16T05:39:45;5.35;;;2.58;;
37431;SDS011;23292;51.300;6.252;2022-10-16T05:42:12;3.70;;;2.15;;
37431;SDS011;23292;51.300;6.252;2022-10-16T05:44:39;8.77;;;2.45;;
37431;SDS011;23292;51.300;6.252;2022-10-16T05:47:05;5.20;;;2.40;;
37431;SDS011;23292;51.300;6.252;2022-10-16T05:49:32;5.13;;;2.22;;
37431;SDS011;23292;51.300;6.252;2022-10-16T05:52:05;4.28;;;2.17;;
37431;SDS011;23292;51.300;6.252;2022-10-16T05:54:32;7.50;;;2.45;;
37431;SDS011;23292;51.300;6.252;2022-10-16T05:56:59;7.53;;;2.60;;
37431;SDS011;23292;51.300;6.252;2022-10-16T05:59:25;5.18;;;2.55;;
37431;SDS011;23292;51.300;6.252;2022-10-16T06:01:52;6.72;;;2.33;;
37431;SDS011;23292;51.300;6.252;2022-10-16T06:04:19;5.20;;;2.50;;
37431;SDS011;23292;51.300;6.252;2022-10-16T06:06:46;5.28;;;2.72;;
37431;SDS011;23292;51.300;6.252;2022-10-16T06:09:13;5.57;;;2.80;;
37431;SDS011;23292;51.300;6.252;2022-10-16T06:11:39;5.45;;;2.70;;
37431;SDS011;23292;51.300;6.252;2022-10-16T06:14:07;7.15;;;2.65;;
37431;SDS011;23292;51.300;6.252;2022-10-16T06:16:35;5.88;;;2.78;;
37431;SDS011;23292;51.300;6.252;2022-10-16T06:19:03;7.90;;;3.30;;
37431;SDS011;23292;51.300;6.252;2022-10-16T06:21:32;5.55;;;3.20;;
37431;SDS011;23292;51.300;6.252;2022-10-16T06:23:59;8.07;;;3.50;;
37431;SDS011;23292;51.300;6.252;2022-10-16T06:26:26;6.97;;;3.47;;
37431;SDS011;23292;51.300;6.252;2022-10-16T06:28:55;9.88;;;3.67;;
37431;SDS011;23292;51.300;6.252;2022-10-16T06:31:25;6.18;;;3.33;;
37431;SDS011;23292;51.300;6.252;2022-10-16T06:33:54;5.93;;;3.30;;
37431;SDS011;23292;51.300;6.252;2022-10-16T06:36:21;11.43;;;3.33;;
37431;SDS011;23292;51.300;6.252;2022-10-16T06:38:48;6.65;;;3.22;;
37431;SDS011;23292;51.300;6.252;2022-10-16T06:41:17;9.15;;;3.55;;
37431;SDS011;23292;51.300;6.252;2022-10-16T06:43:45;10.15;;;4.40;;
37431;SDS011;23292;51.300;6.252;2022-10-16T06:46:14;9.80;;;3.90;;
37431;SDS011;23292;51.300;6.252;2022-10-16T06:48:42;7.18;;;4.22;;
37431;SDS011;23292;51.300;6.252;2022-10-16T06:51:13;7.80;;;5.60;;
37431;SDS011;23292;51.300;6.252;2022-10-16T06:53:43;8.32;;;5.28;;
37431;SDS011;23292;51.300;6.252;2022-10-16T06:56:29;9.50;;;4.93;;
37431;SDS011;23292;51.300;6.252;2022-10-16T06:58:57;10.25;;;5.30;;
37431;SDS011;23292;51.300;6.252;2022-10-16T07:01:25;12.65;;;5.60;;
37431;SDS011;23292;51.300;6.252;2022-10-16T07:03:52;11.65;;;4.95;;
37431;SDS011;23292;51.300;6.252;2022-10-16T07:06:22;8.73;;;4.43;;
37431;SDS011;23292;51.300;6.252;2022-10-16T07:08:50;8.13;;;4.90;;
37431;SDS011;23292;51.300;6.252;2022-10-16T07:11:21;10.75;;;6.18;;
37431;SDS011;23292;51.300;6.252;2022-10-16T07:13:49;8.10;;;5.65;;
37431;SDS011;23292;51.300;6.252;2022-10-16T07:16:28;7.80;;;5.05;;
37431;SDS011;23292;51.300;6.252;2022-10-16T07:18:57;9.27;;;5.60;;
37431;SDS011;23292;51.300;6.252;2022-10-16T07:21:27;16.42;;;9.88;;
37431;SDS011;23292;51.300;6.252;2022-10-16T07:23:56;19.20;;;9.73;;
37431;SDS011;23292;51.300;6.252;2022-10-16T07:26:25;12.75;;;7.38;;
37431;SDS011;23292;51.300;6.252;2022-10-16T07:28:54;14.90;;;7.20;;
37431;SDS011;23292;51.300;6.252;2022-10-16T07:31:21;13.38;;;6.30;;
37431;SDS011;23292;51.300;6.252;2022-10-16T07:33:49;13.82;;;6.65;;
37431;SDS011;23292;51.300;6.252;2022-10-16T07:36:16;11.18;;;6.72;;
37431;SDS011;23292;51.300;6.252;2022-10-16T07:38:44;13.48;;;7.05;;
37431;SDS011;23292;51.300;6.252;2022-10-16T07:41:13;11.15;;;6.72;;
37431;SDS011;23292;51.300;6.252;2022-10-16T07:43:45;14.93;;;7.05;;
37431;SDS011;23292;51.300;6.252;2022-10-16T07:46:16;11.68;;;6.18;;
37431;SDS011;23292;51.300;6.252;2022-10-16T07:48:44;10.80;;;5.07;;
37431;SDS011;23292;51.300;6.252;2022-10-16T07:51:14;10.43;;;4.90;;
37431;SDS011;23292;51.300;6.252;2022-10-16T07:53:42;13.43;;;4.35;;
37431;SDS011;23292;51.300;6.252;2022-10-16T07:56:09;13.65;;;3.78;;
37431;SDS011;23292;51.300;6.252;2022-10-16T07:58:38;11.40;;;3.58;;
37431;SDS011;23292;51.300;6.252;2022-10-16T08:01:05;8.02;;;2.75;;
37431;SDS011;23292;51.300;6.252;2022-10-16T08:03:34;7.70;;;2.80;;
37431;SDS011;23292;51.300;6.252;2022-10-16T08:06:01;8.48;;;2.58;;
37431;SDS011;23292;51.300;6.252;2022-10-16T08:08:29;6.97;;;1.98;;
37431;SDS011;23292;51.300;6.252;2022-10-16T08:10:56;8.50;;;2.58;;
37431;SDS011;23292;51.300;6.252;2022-10-16T08:13:23;5.55;;;2.05;;
37431;SDS011;23292;51.300;6.252;2022-10-16T08:15:50;8.95;;;2.55;;
37431;SDS011;23292;51.300;6.252;2022-10-16T08:18:16;4.68;;;1.65;;
37431;SDS011;23292;51.300;6.252;2022-10-16T08:20:43;4.60;;;1.85;;
37431;SDS011;23292;51.300;6.252;2022-10-16T08:23:13;6.43;;;1.75;;
37431;SDS011;23292;51.300;6.252;2022-10-16T08:25:40;6.47;;;2.05;;
37431;SDS011;23292;51.300;6.252;2022-10-16T08:28:08;3.90;;;1.70;;
37431;SDS011;23292;51.300;6.252;2022-10-16T08:30:36;6.03;;;1.50;;
37431;SDS011;23292;51.300;6.252;2022-10-16T08:33:03;7.40;;;1.67;;
37431;SDS011;23292;51.300;6.252;2022-10-16T08:35:30;3.55;;;1.35;;
37431;SDS011;23292;51.300;6.252;2022-10-16T08:37:57;5.50;;;1.30;;
37431;SDS011;23292;51.300;6.252;2022-10-16T08:40:28;10.57;;;1.70;;
37431;SDS011;23292;51.300;6.252;2022-10-16T08:48:46;6.68;;;1.63;;
37431;SDS011;23292;51.300;6.252;2022-10-16T08:54:30;4.68;;;1.48;;
37431;SDS011;23292;51.300;6.252;2022-10-16T08:57:08;3.72;;;1.27;;
37431;SDS011;23292;51.300;6.252;2022-10-16T08:59:48;5.57;;;1.50;;
37431;SDS011;23292;51.300;6.252;2022-10-16T09:05:16;4.20;;;1.30;;
37431;SDS011;23292;51.300;6.252;2022-10-16T09:13:41;8.60;;;1.40;;
37431;SDS011;23292;51.300;6.252;2022-10-16T09:16:35;5.05;;;1.02;;
37431;SDS011;23292;51.300;6.252;2022-10-16T09:19:16;4.95;;;1.33;;
37431;SDS011;23292;51.300;6.252;2022-10-16T09:21:50;3.85;;;1.30;;
37431;SDS011;23292;51.300;6.252;2022-10-16T09:24:23;8.35;;;1.33;;
37431;SDS011;23292;51.300;6.252;2022-10-16T09:26:54;9.98;;;1.20;;
37431;SDS011;23292;51.300;6.252;2022-10-16T09:29:21;4.20;;;1.05;;
37431;SDS011;23292;51.300;6.252;2022-10-16T09:31:52;4.22;;;1.08;;
37431;SDS011;23292;51.300;6.252;2022-10-16T09:34:30;7.93;;;1.33;;
37431;SDS011;23292;51.300;6.252;2022-10-16T09:37:04;8.82;;;1.20;;
37431;SDS011;23292;51.300;6.252;2022-10-16T09:39:52;4.82;;;1.30;;
37431;SDS011;23292;51.300;6.252;2022-10-16T09:42:25;12.07;;;1.65;;
37431;SDS011;23292;51.300;6.252;2022-10-16T09:44:57;3.40;;;1.13;;
37431;SDS011;23292;51.300;6.252;2022-10-16T09:47:25;4.38;;;1.20;;
37431;SDS011;23292;51.300;6.252;2022-10-16T09:49:55;3.20;;;0.98;;
37431;SDS011;23292;51.300;6.252;2022-10-16T09:54:53;5.63;;;1.00;;
37431;SDS011;23292;51.300;6.252;2022-10-16T09:57:22;5.15;;;1.15;;
37431;SDS011;23292;51.300;6.252;2022-10-16T09:59:52;4.45;;;1.00;;
37431;SDS011;23292;51.300;6.252;2022-10-16T10:02:27;11.35;;;1.30;;
37431;SDS011;23292;51.300;6.252;2022-10-16T10:04:57;7.03;;;1.08;;
37431;SDS011;23292;51.300;6.252;2022-10-16T10:07:33;4.50;;;1.10;;
37431;SDS011;23292;51.300;6.252;2022-10-16T10:13:22;3.60;;;0.98;;
37431;SDS011;23292;51.300;6.252;2022-10-16T10:15:50;5.32;;;0.95;;
37431;SDS011;23292;51.300;6.252;2022-10-16T10:18:18;5.40;;;1.08;;
37431;SDS011;23292;51.300;6.252;2022-10-16T10:20:57;3.78;;;1.08;;
37431;SDS011;23292;51.300;6.252;2022-10-16T10:23:28;4.05;;;0.90;;
37431;SDS011;23292;51.300;6.252;2022-10-16T10:26:05;3.58;;;0.90;;
37431;SDS011;23292;51.300;6.252;2022-10-16T10:28:59;7.13;;;1.00;;
37431;SDS011;23292;51.300;6.252;2022-10-16T10:31:43;3.80;;;1.20;;
37431;SDS011;23292;51.300;6.252;2022-10-16T10:40:01;4.82;;;1.33;;
37431;SDS011;23292;51.300;6.252;2022-10-16T10:45:25;3.10;;;1.13;;
37431;SDS011;23292;51.300;6.252;2022-10-16T10:50:57;5.28;;;1.00;;
37431;SDS011;23292;51.300;6.252;2022-10-16T10:53:43;4.20;;;0.90;;
37431;SDS011;23292;51.300;6.252;2022-10-16T11:07:16;4.30;;;0.90;;
37431;SDS011;23292;51.300;6.252;2022-10-16T11:09:53;5.32;;;0.88;;
37431;SDS011;23292;51.300;6.252;2022-10-16T11:12:29;5.95;;;1.02;;
37431;SDS011;23292;51.300;6.252;2022-10-16T11:15:02;4.18;;;0.93;;
37431;SDS011;23292;51.300;6.252;2022-10-16T11:17:53;6.32;;;1.45;;
37431;SDS011;23292;51.300;6.252;2022-10-16T11:20:31;6.75;;;1.10;;
37431;SDS011;23292;51.300;6.252;2022-10-16T11:25:42;3.78;;;1.73;;
37431;SDS011;23292;51.300;6.252;2022-10-16T11:28:12;7.85;;;1.10;;
37431;SDS011;23292;51.300;6.252;2022-10-16T11:35:49;7.45;;;1.42;;
37431;SDS011;23292;51.300;6.252;2022-10-16T11:41:10;5.88;;;1.15;;
37431;SDS011;23292;51.300;6.252;2022-10-16T11:43:41;3.72;;;1.02;;
37431;SDS011;23292;51.300;6.252;2022-10-16T11:46:16;2.80;;;0.90;;
37431;SDS011;23292;51.300;6.252;2022-10-16T11:51:40;5.35;;;1.10;;
37431;SDS011;23292;51.300;6.252;2022-10-16T11:56:44;2.88;;;0.85;;
37431;SDS011;23292;51.300;6.252;2022-10-16T11:59:25;4.57;;;0.68;;
37431;SDS011;23292;51.300;6.252;2022-10-16T12:07:50;4.78;;;1.05;;
37431;SDS011;23292;51.300;6.252;2022-10-16T12:10:25;7.65;;;1.33;;
37431;SDS011;23292;51.300;6.252;2022-10-16T12:12:54;4.78;;;1.00;;
37431;SDS011;23292;51.300;6.252;2022-10-16T12:15:29;2.65;;;0.90;;
37431;SDS011;23292;51.300;6.252;2022-10-16T12:18:22;4.63;;;0.75;;
37431;SDS011;23292;51.300;6.252;2022-10-16T12:20:57;5.15;;;0.90;;
37431;SDS011;23292;51.300;6.252;2022-10-16T12:23:38;2.63;;;0.73;;
37431;SDS011;23292;51.300;6.252;2022-10-16T12:28:40;6.65;;;1.13;;
37431;SDS011;23292;51.300;6.252;2022-10-16T12:31:08;4.07;;;1.20;;
37431;SDS011;23292;51.300;6.252;2022-10-16T12:33:36;3.88;;;0.90;;
37431;SDS011;23292;51.300;6.252;2022-10-16T12:36:26;3.80;;;0.82;;
37431;SDS011;23292;51.300;6.252;2022-10-16T12:38:56;5.60;;;1.40;;
37431;SDS011;23292;51.300;6.252;2022-10-16T12:41:33;4.20;;;1.33;;
37431;SDS011;23292;51.300;6.252;2022-10-16T12:44:02;1.60;;;0.70;;
37431;SDS011;23292;51.300;6.252;2022-10-16T12:49:06;2.67;;;0.65;;
37431;SDS011;23292;51.300;6.252;2022-10-16T12:51:40;5.57;;;0.88;;
37431;SDS011;23292;51.300;6.252;2022-10-16T13:05:15;2.03;;;0.70;;
37431;SDS011;23292;51.300;6.252;2022-10-16T13:11:46;6.65;;;1.15;;
37431;SDS011;23292;51.300;6.252;2022-10-16T13:20:06;4.25;;;0.98;;
37431;SDS011;23292;51.300;6.252;2022-10-16T13:28:05;2.60;;;0.90;;
37431;SDS011;23292;51.300;6.252;2022-10-16T13:30:41;3.88;;;0.88;;
37431;SDS011;23292;51.300;6.252;2022-10-16T13:33:20;2.70;;;0.82;;
37431;SDS011;23292;51.300;6.252;2022-10-16T13:35:52;5.55;;;1.08;;
37431;SDS011;23292;51.300;6.252;2022-10-16T13:43:18;7.00;;;1.30;;
37431;SDS011;23292;51.300;6.252;2022-10-16T13:46:21;4.07;;;0.90;;
37431;SDS011;23292;51.300;6.252;2022-10-16T13:48:41;7.60;;;1.17;;
37431;SDS011;23292;51.300;6.252;2022-10-16T13:51:17;3.22;;;0.88;;
37431;SDS011;23292;51.300;6.252;2022-10-16T13:53:45;4.68;;;1.05;;
37431;SDS011;23292;51.300;6.252;2022-10-16T13:56:13;6.63;;;1.10;;
37431;SDS011;23292;51.300;6.252;2022-10-16T13:58:42;5.35;;;1.00;;
37431;SDS011;23292;51.300;6.252;2022-10-16T14:03:42;3.72;;;0.93;;
37431;SDS011;23292;51.300;6.252;2022-10-16T14:06:11;2.95;;;0.80;;
37431;SDS011;23292;51.300;6.252;2022-10-16T14:08:49;5.53;;;1.00;;
37431;SDS011;23292;51.300;6.252;2022-10-16T14:11:48;2.35;;;0.70;;
37431;SDS011;23292;51.300;6.252;2022-10-16T14:14:18;2.80;;;0.70;;
37431;SDS011;23292;51.300;6.252;2022-10-16T14:16:45;3.92;;;1.10;;
37431;SDS011;23292;51.300;6.252;2022-10-16T14:19:24;5.45;;;1.00;;
37431;SDS011;23292;51.300;6.252;2022-10-16T14:21:53;4.63;;;1.00;;
37431;SDS011;23292;51.300;6.252;2022-10-16T14:24:25;5.25;;;0.90;;
37431;SDS011;23292;51.300;6.252;2022-10-16T14:27:00;4.05;;;0.85;;
37431;SDS011;23292;51.300;6.252;2022-10-16T14:29:28;4.68;;;0.90;;
37431;SDS011;23292;51.300;6.252;2022-10-16T14:32:02;5.33;;;0.87;;
37431;SDS011;23292;51.300;6.252;2022-10-16T14:34:31;4.55;;;1.10;;
37431;SDS011;23292;51.300;6.252;2022-10-16T14:37:20;5.25;;;1.55;;
37431;SDS011;23292;51.300;6.252;2022-10-16T14:39:54;7.82;;;1.42;;
37431;SDS011;23292;51.300;6.252;2022-10-16T14:42:22;2.28;;;1.00;;
37431;SDS011;23292;51.300;6.252;2022-10-16T14:44:52;2.87;;;1.00;;
37431;SDS011;23292;51.300;6.252;2022-10-16T14:47:23;4.57;;;1.30;;
37431;SDS011;23292;51.300;6.252;2022-10-16T14:49:53;3.17;;;1.20;;
37431;SDS011;23292;51.300;6.252;2022-10-16T14:52:22;7.78;;;1.50;;
37431;SDS011;23292;51.300;6.252;2022-10-16T14:54:49;4.93;;;1.40;;
37431;SDS011;23292;51.300;6.252;2022-10-16T14:57:17;4.22;;;1.10;;
37431;SDS011;23292;51.300;6.252;2022-10-16T14:59:46;3.13;;;1.20;;
37431;SDS011;23292;51.300;6.252;2022-10-16T15:04:55;5.97;;;2.08;;
37431;SDS011;23292;51.300;6.252;2022-10-16T15:07:23;5.13;;;1.60;;
37431;SDS011;23292;51.300;6.252;2022-10-16T15:09:51;4.53;;;1.67;;
37431;SDS011;23292;51.300;6.252;2022-10-16T15:12:19;5.03;;;1.20;;
37431;SDS011;23292;51.300;6.252;2022-10-16T15:14:46;6.13;;;1.30;;
37431;SDS011;23292;51.300;6.252;2022-10-16T15:17:13;3.80;;;1.33;;
37431;SDS011;23292;51.300;6.252;2022-10-16T15:19:45;6.35;;;1.40;;
37431;SDS011;23292;51.300;6.252;2022-10-16T15:22:11;4.55;;;1.08;;
37431;SDS011;23292;51.300;6.252;2022-10-16T15:24:41;6.07;;;1.50;;
37431;SDS011;23292;51.300;6.252;2022-10-16T15:27:07;5.97;;;1.30;;
37431;SDS011;23292;51.300;6.252;2022-10-16T15:29:35;6.40;;;1.50;;
37431;SDS011;23292;51.300;6.252;2022-10-16T15:32:01;4.90;;;1.67;;
37431;SDS011;23292;51.300;6.252;2022-10-16T15:34:28;6.88;;;1.80;;
37431;SDS011;23292;51.300;6.252;2022-10-16T15:36:55;6.82;;;2.30;;
37431;SDS011;23292;51.300;6.252;2022-10-16T15:39:23;6.35;;;2.85;;
37431;SDS011;23292;51.300;6.252;2022-10-16T15:41:50;4.78;;;2.17;;
37431;SDS011;23292;51.300;6.252;2022-10-16T15:44:19;8.77;;;1.98;;
37431;SDS011;23292;51.300;6.252;2022-10-16T15:46:49;4.03;;;1.20;;
37431;SDS011;23292;51.300;6.252;2022-10-16T15:49:15;4.25;;;1.40;;
37431;SDS011;23292;51.300;6.252;2022-10-16T15:51:42;8.10;;;1.65;;
37431;SDS011;23292;51.300;6.252;2022-10-16T15:54:09;5.20;;;1.70;;
37431;SDS011;23292;51.300;6.252;2022-10-16T15:56:36;5.97;;;2.05;;
37431;SDS011;23292;51.300;6.252;2022-10-16T15:59:03;4.45;;;1.55;;
37431;SDS011;23292;51.300;6.252;2022-10-16T16:01:34;9.05;;;2.20;;
37431;SDS011;23292;51.300;6.252;2022-10-16T16:04:02;7.53;;;1.95;;
37431;SDS011;23292;51.300;6.252;2022-10-16T16:06:45;5.70;;;1.80;;
37431;SDS011;23292;51.300;6.252;2022-10-16T16:09:12;5.25;;;1.65;;
37431;SDS011;23292;51.300;6.252;2022-10-16T16:11:40;4.47;;;1.70;;
37431;SDS011;23292;51.300;6.252;2022-10-16T16:14:07;4.82;;;2.08;;
37431;SDS011;23292;51.300;6.252;2022-10-16T16:16:38;6.65;;;2.17;;
37431;SDS011;23292;51.300;6.252;2022-10-16T16:19:05;7.97;;;2.03;;
37431;SDS011;23292;51.300;6.252;2022-10-16T16:21:37;6.10;;;3.03;;
37431;SDS011;23292;51.300;6.252;2022-10-16T16:24:03;11.90;;;4.53;;
37431;SDS011;23292;51.300;6.252;2022-10-16T16:26:34;10.10;;;3.67;;
37431;SDS011;23292;51.300;6.252;2022-10-16T16:29:03;13.25;;;3.90;;
37431;SDS011;23292;51.300;6.252;2022-10-16T16:31:31;10.07;;;3.40;;
37431;SDS011;23292;51.300;6.252;2022-10-16T16:33:58;6.30;;;3.30;;
37431;SDS011;23292;51.300;6.252;2022-10-16T16:36:25;8.30;;;3.75;;
37431;SDS011;23292;51.300;6.252;2022-10-16T16:38:52;11.48;;;4.43;;
37431;SDS011;23292;51.300;6.252;2022-10-16T16:41:20;13.25;;;4.55;;
37431;SDS011;23292;51.300;6.252;2022-10-16T16:43:49;12.23;;;5.15;;
37431;SDS011;23292;51.300;6.252;2022-10-16T16:46:17;9.77;;;4.63;;
37431;SDS011;23292;51.300;6.252;2022-10-16T16:48:44;12.25;;;5.43;;
37431;SDS011;23292;51.300;6.252;2022-10-16T16:51:12;13.07;;;5.00;;
37431;SDS011;23292;51.300;6.252;2022-10-16T16:53:43;13.38;;;5.65;;
37431;SDS011;23292;51.300;6.252;2022-10-16T16:56:10;13.48;;;6.03;;
37431;SDS011;23292;51.300;6.252;2022-10-16T16:58:37;11.52;;;4.80;;
37431;SDS011;23292;51.300;6.252;2022-10-16T17:01:04;13.98;;;5.50;;